createdAt,value
2022-12-06T00:00:16.265Z,40.18
2022-12-06T00:02:20.837Z,40.15
2022-12-06T00:04:25.359Z,40.28
2022-12-06T00:06:29.872Z,40.38
2022-12-06T00:08:34.226Z,40.28
2022-12-06T00:10:38.541Z,40.42
2022-12-06T00:12:42.916Z,40.4
2022-12-06T00:14:47.323Z,40.34
2022-12-06T00:16:51.911Z,40.5
2022-12-06T00:18:56.414Z,40.32
2022-12-06T00:21:00.865Z,40.37
2022-12-06T00:23:05.234Z,40.43
2022-12-06T00:25:09.627Z,40.5
2022-12-06T00:27:13.994Z,40.55
2022-12-06T00:29:18.458Z,40.5
2022-12-06T00:31:23.145Z,40.59
2022-12-06T00:33:27.576Z,40.62
2022-12-06T00:35:31.992Z,40.69
2022-12-06T00:37:36.346Z,40.7
2022-12-06T00:39:40.751Z,40.76
2022-12-06T00:41:45.143Z,40.83
2022-12-06T00:43:49.513Z,40.91
2022-12-06T00:45:54.118Z,40.93
2022-12-06T00:47:58.619Z,41
2022-12-06T00:50:03.526Z,40.92
2022-12-06T00:52:07.841Z,41.1
2022-12-06T00:54:12.305Z,41.05
2022-12-06T00:56:16.695Z,41.05
2022-12-06T00:58:21.073Z,41.1
2022-12-06T01:00:25.447Z,41.06
2022-12-06T01:02:29.878Z,40.98
2022-12-06T01:04:34.321Z,41.05
2022-12-06T01:06:38.708Z,41.13
2022-12-06T01:08:43.078Z,41.1
2022-12-06T01:10:47.427Z,41.19
2022-12-06T01:12:51.734Z,41.15
2022-12-06T01:14:56.114Z,41.53
2022-12-06T01:17:00.688Z,41.78
2022-12-06T01:19:05.054Z,42.15
2022-12-06T01:21:09.444Z,42.15
2022-12-06T01:23:13.810Z,42.13
2022-12-06T01:25:18.150Z,42.13
2022-12-06T01:27:22.502Z,41.93
2022-12-06T01:29:27.083Z,41.96
2022-12-06T01:31:40.480Z,41.82
2022-12-06T01:33:44.829Z,41.75
2022-12-06T01:35:49.184Z,41.81
2022-12-06T01:37:53.533Z,41.79
2022-12-06T01:39:58.354Z,41.99
2022-12-06T01:42:02.853Z,41.86
2022-12-06T01:44:07.172Z,41.77
2022-12-06T01:46:11.787Z,41.7
2022-12-06T01:48:16.168Z,41.88
2022-12-06T01:50:20.520Z,41.74
2022-12-06T01:52:24.874Z,41.85
2022-12-06T01:54:29.222Z,41.65
2022-12-06T01:56:33.562Z,41.76
2022-12-06T01:58:37.972Z,41.78
2022-12-06T02:00:42.297Z,41.78
2022-12-06T02:02:46.925Z,41.68
2022-12-06T02:04:51.302Z,41.71
2022-12-06T02:06:55.644Z,41.73
2022-12-06T02:09:00.030Z,41.85
2022-12-06T02:11:04.355Z,41.88
2022-12-06T02:13:08.693Z,42.01
2022-12-06T02:15:13.067Z,41.97
2022-12-06T02:17:17.691Z,41.8
2022-12-06T02:19:22.179Z,41.9
2022-12-06T02:21:26.536Z,41.91
2022-12-06T02:23:30.898Z,41.9
2022-12-06T02:25:43.414Z,42.07
2022-12-06T02:27:47.980Z,41.79
2022-12-06T02:29:52.346Z,41.92
2022-12-06T02:31:56.684Z,41.96
2022-12-06T02:34:01.048Z,41.85
2022-12-06T02:36:05.439Z,41.96
2022-12-06T02:38:15.000Z,41.76
2022-12-06T02:40:19.508Z,41.71
2022-12-06T02:42:23.863Z,41.79
2022-12-06T02:44:28.189Z,41.84
2022-12-06T02:46:32.790Z,41.76
2022-12-06T02:48:37.160Z,41.78
2022-12-06T02:50:41.510Z,42
2022-12-06T02:52:45.884Z,41.92
2022-12-06T02:54:50.232Z,41.97
2022-12-06T02:56:54.584Z,42.13
2022-12-06T02:58:58.945Z,42.08
2022-12-06T03:01:03.551Z,42.25
2022-12-06T03:03:08.137Z,42.18
2022-12-06T03:05:12.482Z,42.37
2022-12-06T03:07:16.836Z,42.33
2022-12-06T03:09:21.223Z,42.2
2022-12-06T03:11:25.564Z,42.4
2022-12-06T03:13:29.932Z,42.47
2022-12-06T03:15:34.495Z,42.46
2022-12-06T03:17:38.914Z,42.54
2022-12-06T03:19:43.284Z,42.45
2022-12-06T03:21:47.617Z,42.52
2022-12-06T03:23:51.974Z,42.53
2022-12-06T03:25:56.345Z,42.51
2022-12-06T03:28:00.668Z,42.43
2022-12-06T03:30:05.150Z,42.37
2022-12-06T03:32:09.499Z,42.49
2022-12-06T03:34:13.862Z,42.46
2022-12-06T03:36:18.214Z,42.45
2022-12-06T03:38:22.551Z,42.41
2022-12-06T03:40:26.926Z,42.46
2022-12-06T03:42:31.253Z,42.45
2022-12-06T03:44:35.601Z,42.53
2022-12-06T03:46:40.130Z,42.54
2022-12-06T03:48:44.504Z,42.55
2022-12-06T03:50:50.196Z,42.59
2022-12-06T03:52:57.313Z,42.41
2022-12-06T03:55:01.747Z,42.41
2022-12-06T03:57:06.105Z,42.47
2022-12-06T03:59:10.442Z,42.42
2022-12-06T04:01:14.893Z,42.45
2022-12-06T04:03:19.674Z,42.44
2022-12-06T04:05:24.049Z,42.36
2022-12-06T04:07:28.455Z,42.39
2022-12-06T04:09:32.788Z,42.39
2022-12-06T04:11:37.145Z,42.44
2022-12-06T04:13:41.590Z,42.4
2022-12-06T04:15:46.202Z,42.4
2022-12-06T04:17:50.605Z,42.43
2022-12-06T04:19:54.980Z,42.38
2022-12-06T04:21:59.341Z,42.33
2022-12-06T04:24:03.713Z,42.52
2022-12-06T04:26:08.081Z,42.56
2022-12-06T04:28:12.439Z,42.57
2022-12-06T04:30:16.823Z,42.56
2022-12-06T04:32:21.204Z,42.49
2022-12-06T04:34:25.577Z,42.54
2022-12-06T04:36:29.931Z,42.5
2022-12-06T04:38:34.284Z,42.52
2022-12-06T04:40:38.645Z,42.54
2022-12-06T04:42:43.030Z,42.51
2022-12-06T04:44:47.437Z,42.5
2022-12-06T04:46:51.968Z,42.55
2022-12-06T04:48:56.337Z,42.46
2022-12-06T04:51:00.701Z,42.44
2022-12-06T04:53:05.055Z,42.46
2022-12-06T04:55:09.393Z,42.49
2022-12-06T04:57:13.715Z,42.49
2022-12-06T04:59:18.082Z,42.49
2022-12-06T05:01:22.808Z,42.54
2022-12-06T05:03:27.560Z,42.48
2022-12-06T05:05:32.146Z,42.49
2022-12-06T05:07:36.679Z,42.33
2022-12-06T05:09:41.118Z,42.5
2022-12-06T05:11:45.488Z,42.54
2022-12-06T05:13:49.834Z,42.42
2022-12-06T05:15:54.430Z,42.52
2022-12-06T05:17:58.845Z,42.44
2022-12-06T05:20:03.928Z,42.48
2022-12-06T05:22:08.271Z,42.58
2022-12-06T05:24:12.637Z,42.59
2022-12-06T05:26:17.030Z,42.59
2022-12-06T05:28:21.364Z,42.58
2022-12-06T05:30:25.705Z,42.59
2022-12-06T05:32:30.038Z,42.61
2022-12-06T05:34:34.406Z,42.53
2022-12-06T05:36:38.743Z,42.55
2022-12-06T05:38:51.073Z,42.58
2022-12-06T05:40:55.866Z,42.61
2022-12-06T05:43:00.201Z,42.56
2022-12-06T05:45:04.524Z,42.59
2022-12-06T05:47:08.869Z,42.59
2022-12-06T05:49:13.188Z,42.57
2022-12-06T05:51:17.528Z,42.61
2022-12-06T05:53:21.880Z,42.73
2022-12-06T05:55:26.210Z,42.79
2022-12-06T05:57:30.568Z,42.74
2022-12-06T05:59:34.912Z,42.66
2022-12-06T06:01:39.539Z,42.7
2022-12-06T06:03:49.383Z,42.75
2022-12-06T06:05:53.711Z,42.66
2022-12-06T06:07:58.431Z,42.67
2022-12-06T06:10:03.656Z,42.85
2022-12-06T06:12:14.202Z,42.96
2022-12-06T06:14:18.552Z,42.98
2022-12-06T06:16:23.134Z,42.85
2022-12-06T06:18:27.509Z,42.7
2022-12-06T06:20:31.877Z,42.68
2022-12-06T06:22:36.213Z,42.63
2022-12-06T06:24:40.567Z,42.62
2022-12-06T06:26:44.948Z,42.62
2022-12-06T06:28:49.281Z,42.57
2022-12-06T06:30:53.723Z,42.55
2022-12-06T06:32:58.114Z,42.67
2022-12-06T06:35:02.704Z,42.58
2022-12-06T06:37:07.072Z,42.68
2022-12-06T06:39:11.397Z,42.62
2022-12-06T06:41:15.780Z,42.38
2022-12-06T06:43:20.951Z,42.54
2022-12-06T06:45:30.682Z,42.29
2022-12-06T06:47:35.368Z,42.27
2022-12-06T06:49:39.704Z,42.36
2022-12-06T06:51:44.109Z,42.23
2022-12-06T06:53:48.483Z,42.11
2022-12-06T06:55:52.936Z,42.03
2022-12-06T06:57:57.350Z,41.9
2022-12-06T07:00:02.994Z,41.83
2022-12-06T07:02:07.771Z,41.73
2022-12-06T07:04:12.130Z,41.61
2022-12-06T07:06:16.466Z,41.73
2022-12-06T07:08:21.273Z,41.75
2022-12-06T07:10:25.724Z,41.7
2022-12-06T07:12:30.108Z,41.38
2022-12-06T07:14:34.450Z,41.57
2022-12-06T07:16:39.070Z,41.49
2022-12-06T07:18:43.508Z,41.73
2022-12-06T07:20:47.839Z,41.64
2022-12-06T07:22:52.213Z,41.55
2022-12-06T07:24:56.597Z,41.2
2022-12-06T07:27:00.929Z,41.3
2022-12-06T07:29:05.298Z,41.07
2022-12-06T07:31:09.992Z,41.17
2022-12-06T07:33:14.445Z,40.88
2022-12-06T07:35:18.795Z,40.97
2022-12-06T07:37:23.190Z,40.99
2022-12-06T07:39:27.532Z,40.81
2022-12-06T07:41:31.922Z,40.75
2022-12-06T07:43:36.272Z,40.74
2022-12-06T07:45:40.817Z,40.62
2022-12-06T07:47:45.240Z,40.56
2022-12-06T07:49:49.653Z,40.6
2022-12-06T07:51:54.031Z,40.33
2022-12-06T07:53:58.573Z,40.36
2022-12-06T07:56:02.924Z,40.38
2022-12-06T07:58:07.263Z,40.28
2022-12-06T08:00:11.671Z,40.2
2022-12-06T08:02:15.923Z,40.17
2022-12-06T08:04:20.493Z,40.09
2022-12-06T08:06:25.025Z,40.03
2022-12-06T08:08:31.309Z,39.94
2022-12-06T08:10:35.695Z,39.93
2022-12-06T08:12:40.076Z,39.99
2022-12-06T08:14:44.428Z,39.95
2022-12-06T08:16:48.811Z,39.88
2022-12-06T08:18:53.777Z,39.94
2022-12-06T08:20:58.160Z,40.05
2022-12-06T08:23:02.537Z,40.08
2022-12-06T08:25:07.012Z,40
2022-12-06T08:27:11.328Z,39.97
2022-12-06T08:29:15.696Z,39.91
2022-12-06T08:31:20.439Z,40.01
2022-12-06T08:33:24.785Z,40.01
2022-12-06T08:35:29.153Z,40.04
2022-12-06T08:37:33.599Z,39.98
2022-12-06T08:39:37.973Z,39.9
2022-12-06T08:41:42.344Z,39.8
2022-12-06T08:43:46.724Z,39.82
2022-12-06T08:45:51.221Z,39.82
2022-12-06T08:47:55.692Z,39.78
2022-12-06T08:50:01.276Z,39.84
2022-12-06T08:52:05.831Z,39.83
2022-12-06T08:54:10.171Z,39.86
2022-12-06T08:56:14.537Z,39.9
2022-12-06T08:58:18.924Z,39.92
2022-12-06T09:00:23.267Z,39.87
2022-12-06T09:02:27.659Z,39.87
2022-12-06T09:04:32.305Z,39.79
2022-12-06T09:06:36.824Z,39.79
2022-12-06T09:08:41.360Z,39.83
2022-12-06T09:10:45.754Z,39.85
2022-12-06T09:12:50.162Z,39.79
2022-12-06T09:14:54.509Z,39.87
2022-12-06T09:16:58.891Z,39.76
2022-12-06T09:19:03.264Z,39.77
2022-12-06T09:21:07.727Z,39.79
2022-12-06T09:23:12.097Z,39.75
2022-12-06T09:25:16.468Z,39.78
2022-12-06T09:27:20.829Z,39.77
2022-12-06T09:29:25.175Z,39.78
2022-12-06T09:31:29.966Z,39.78
2022-12-06T09:33:34.341Z,39.71
2022-12-06T09:35:38.719Z,39.68
2022-12-06T09:37:43.094Z,39.73
2022-12-06T09:39:47.482Z,39.69
2022-12-06T09:41:51.828Z,39.69
2022-12-06T09:43:56.182Z,39.72
2022-12-06T09:46:00.850Z,39.77
2022-12-06T09:48:05.284Z,39.87
2022-12-06T09:50:09.705Z,39.85
2022-12-06T09:52:14.078Z,39.91
2022-12-06T09:54:18.456Z,40.07
2022-12-06T09:56:22.842Z,40.14
2022-12-06T09:58:27.238Z,40.23
2022-12-06T10:00:31.679Z,40.2
2022-12-06T10:02:36.393Z,40.12
2022-12-06T10:04:40.846Z,40.08
2022-12-06T10:06:45.211Z,40.06
2022-12-06T10:08:50.456Z,40
2022-12-06T10:10:54.989Z,39.95
2022-12-06T10:12:59.344Z,39.93
2022-12-06T10:15:03.751Z,39.92
2022-12-06T10:17:11.442Z,40.06
2022-12-06T10:19:15.894Z,39.22
2022-12-06T10:21:20.613Z,38.65
2022-12-06T10:23:24.976Z,38.88
2022-12-06T10:25:29.414Z,38.72
2022-12-06T10:27:33.794Z,38.27
2022-12-06T10:29:38.138Z,38.14
2022-12-06T10:31:42.792Z,38.16
2022-12-06T10:33:47.251Z,38.12
2022-12-06T10:35:51.667Z,38.12
2022-12-06T10:37:56.072Z,38.13
2022-12-06T10:40:00.491Z,38.06
2022-12-06T10:42:04.818Z,37.99
2022-12-06T10:44:09.224Z,38.32
2022-12-06T10:46:13.697Z,38.18
2022-12-06T10:48:18.103Z,38.06
2022-12-06T10:50:22.515Z,37.97
2022-12-06T10:52:26.925Z,37.95
2022-12-06T10:54:31.300Z,37.95
2022-12-06T10:56:35.717Z,37.71
2022-12-06T10:58:40.163Z,37.86
2022-12-06T11:00:44.734Z,37.79
2022-12-06T11:02:49.081Z,37.77
2022-12-06T11:04:53.402Z,37.65
2022-12-06T11:06:57.716Z,37.65
2022-12-06T11:09:02.013Z,37.64
2022-12-06T11:11:06.294Z,37.52
2022-12-06T11:13:10.603Z,37.62
2022-12-06T11:15:14.922Z,37.55
2022-12-06T11:17:19.223Z,37.43
2022-12-06T11:19:23.554Z,37.64
2022-12-06T11:21:27.847Z,37.71
2022-12-06T11:23:32.143Z,37.64
2022-12-06T11:25:36.513Z,37.39
2022-12-06T11:27:40.811Z,37.33
2022-12-06T11:29:45.223Z,37.31
2022-12-06T11:31:49.750Z,37.38
2022-12-06T11:33:54.107Z,37.33
2022-12-06T11:35:58.442Z,37.32
2022-12-06T11:38:02.728Z,37.28
2022-12-06T11:40:07.019Z,37.33
2022-12-06T11:42:11.308Z,37.42
2022-12-06T11:44:15.634Z,37.46
2022-12-06T11:46:20.296Z,37.5
2022-12-06T11:48:24.605Z,37.53
2022-12-06T11:50:28.923Z,37.33
2022-12-06T11:52:33.214Z,37.28
2022-12-06T11:54:37.546Z,37.23
2022-12-06T11:56:41.867Z,37.1
2022-12-06T11:58:46.171Z,37.4
2022-12-06T12:00:50.516Z,37.46
2022-12-06T12:02:55.132Z,37.38
2022-12-06T12:05:00.462Z,37.32
2022-12-06T12:07:04.935Z,37.2
2022-12-06T12:09:09.225Z,37.1
2022-12-06T12:11:13.561Z,37
2022-12-06T12:13:17.926Z,36.95
2022-12-06T12:15:22.234Z,36.96
2022-12-06T12:17:26.558Z,36.88
2022-12-06T12:19:30.842Z,36.78
2022-12-06T12:21:35.126Z,36.87
2022-12-06T12:23:39.439Z,36.9
2022-12-06T12:25:43.751Z,36.84
2022-12-06T12:27:48.081Z,36.85
2022-12-06T12:29:52.389Z,37.05
2022-12-06T12:31:57.190Z,37.04
2022-12-06T12:34:01.557Z,37.11
2022-12-06T12:36:05.836Z,37.18
2022-12-06T12:38:10.132Z,37.17
2022-12-06T12:40:14.462Z,37.21
2022-12-06T12:42:18.765Z,37.17
2022-12-06T12:44:40.782Z,37.13
2022-12-06T12:46:45.105Z,37.15
2022-12-06T12:48:49.474Z,37.15
2022-12-06T12:50:53.804Z,37.14
2022-12-06T12:52:58.666Z,37.28
2022-12-06T12:55:04.574Z,37.43
2022-12-06T12:57:08.940Z,37.34
2022-12-06T12:59:13.242Z,37.25
2022-12-06T13:01:17.808Z,37.3
2022-12-06T13:03:52.797Z,37.28
2022-12-06T13:05:57.126Z,37.24
2022-12-06T13:08:01.678Z,37.29
2022-12-06T13:10:06.029Z,37.23
2022-12-06T13:12:10.308Z,37.18
2022-12-06T13:14:14.618Z,37.28
2022-12-06T13:16:19.127Z,37.15
2022-12-06T13:18:23.433Z,37.26
2022-12-06T13:20:27.755Z,37.17
2022-12-06T13:22:32.135Z,37.15
2022-12-06T13:24:36.446Z,37.17
2022-12-06T13:26:40.758Z,37.11
2022-12-06T13:28:45.075Z,37.1
2022-12-06T13:30:49.589Z,37.11
2022-12-06T13:32:53.935Z,37.14
2022-12-06T13:34:58.640Z,37.14
2022-12-06T13:37:03.218Z,37.1
2022-12-06T13:39:07.621Z,37.18
2022-12-06T13:41:11.939Z,37.12
2022-12-06T13:43:16.259Z,37.15
2022-12-06T13:45:20.580Z,37.11
2022-12-06T13:47:24.896Z,37.12
2022-12-06T13:49:29.269Z,37.08
2022-12-06T13:51:33.598Z,37.11
2022-12-06T13:53:37.982Z,37.15
2022-12-06T13:55:42.318Z,37.09
2022-12-06T13:57:46.742Z,37.11
2022-12-06T13:59:51.083Z,37.15
2022-12-06T14:01:55.714Z,36.99
2022-12-06T14:04:00.111Z,37
2022-12-06T14:06:16.289Z,37
2022-12-06T14:08:21.119Z,37.09
2022-12-06T14:10:25.458Z,37.01
2022-12-06T14:12:29.845Z,37.05
2022-12-06T14:14:34.225Z,37.04
2022-12-06T14:16:38.869Z,37.1
2022-12-06T14:18:43.313Z,36.85
2022-12-06T14:20:47.651Z,36.86
2022-12-06T14:22:52.286Z,36.81
2022-12-06T14:24:56.661Z,36.77
2022-12-06T14:27:01.117Z,36.73
2022-12-06T14:29:05.509Z,36.78
2022-12-06T14:31:10.281Z,36.99
2022-12-06T14:33:14.749Z,37.11
2022-12-06T14:35:19.104Z,37.09
2022-12-06T14:37:23.475Z,37.48
2022-12-06T14:39:27.845Z,37.42
2022-12-06T14:41:32.177Z,37.47
2022-12-06T14:43:36.510Z,37.74
2022-12-06T14:45:40.834Z,37.87
2022-12-06T14:47:45.223Z,38.04
2022-12-06T14:49:49.617Z,38.15
2022-12-06T14:51:53.997Z,38.02
2022-12-06T14:53:58.350Z,38.06
2022-12-06T14:56:02.645Z,38.09
2022-12-06T14:58:07.009Z,38.05
2022-12-06T15:00:28.080Z,38.35
2022-12-06T15:02:32.467Z,38.55
2022-12-06T15:04:37.349Z,38.47
2022-12-06T15:06:41.688Z,38.57
2022-12-06T15:08:53.607Z,38.66
2022-12-06T15:10:59.261Z,38.66
2022-12-06T15:13:03.583Z,38.71
2022-12-06T15:15:07.956Z,38.77
2022-12-06T15:17:12.258Z,38.78
2022-12-06T15:19:16.590Z,38.83
2022-12-06T15:21:20.925Z,38.76
2022-12-06T15:23:25.264Z,39.42
2022-12-06T15:25:29.622Z,39.47
2022-12-06T15:27:33.945Z,40.16
2022-12-06T15:29:38.293Z,40.68
2022-12-06T15:31:43.105Z,40.88
2022-12-06T15:33:47.427Z,41.05
2022-12-06T15:35:51.782Z,41.76
2022-12-06T15:37:56.149Z,41.76
2022-12-06T15:40:01.850Z,42.28
2022-12-06T15:42:06.252Z,42.43
2022-12-06T15:44:10.581Z,43.15
2022-12-06T15:46:15.132Z,43.31
2022-12-06T15:48:19.500Z,43.21
2022-12-06T15:50:23.838Z,43.14
2022-12-06T15:52:28.178Z,43.11
2022-12-06T15:54:32.480Z,43.24
2022-12-06T15:56:36.837Z,43.35
2022-12-06T15:58:41.160Z,43.55
2022-12-06T16:00:45.457Z,43.27
2022-12-06T16:02:49.806Z,43.39
2022-12-06T16:04:54.182Z,43.38
2022-12-06T16:06:58.506Z,43.26
2022-12-06T16:09:02.848Z,43.28
2022-12-06T16:11:15.090Z,43.27
2022-12-06T16:13:19.435Z,43.24
2022-12-06T16:15:23.791Z,43.05
2022-12-06T16:17:28.088Z,43.11
2022-12-06T16:19:32.436Z,43.09
2022-12-06T16:21:36.752Z,42.92
2022-12-06T16:24:15.456Z,42.97
2022-12-06T16:26:19.753Z,43.04
2022-12-06T16:28:24.055Z,42.83
2022-12-06T16:30:28.376Z,42.63
2022-12-06T16:32:32.732Z,42.71
2022-12-06T16:34:37.136Z,42.61
2022-12-06T16:36:41.421Z,42.41
2022-12-06T16:38:46.072Z,42.67
2022-12-06T16:40:50.515Z,42.87
2022-12-06T16:42:54.834Z,43.02
2022-12-06T16:45:00.038Z,42.95
2022-12-06T16:47:05.030Z,43.06
2022-12-06T16:49:49.440Z,42.9
2022-12-06T16:51:53.945Z,43.07
2022-12-06T16:53:58.269Z,42.97
2022-12-06T16:56:02.617Z,43
2022-12-06T16:58:06.958Z,42.94
2022-12-06T17:00:11.399Z,42.93
2022-12-06T17:02:15.825Z,42.85
2022-12-06T17:04:20.188Z,42.81
2022-12-06T17:06:24.809Z,42.73
2022-12-06T17:08:29.410Z,42.69
2022-12-06T17:10:33.782Z,42.77
2022-12-06T17:12:38.153Z,42.64
2022-12-06T17:14:42.456Z,42.43
2022-12-06T17:16:47.069Z,43.05
2022-12-06T17:18:52.090Z,43.18
2022-12-06T17:20:56.446Z,43.35
2022-12-06T17:23:00.891Z,43.28
2022-12-06T17:25:05.892Z,43.39
2022-12-06T17:27:10.321Z,43.25
2022-12-06T17:29:14.693Z,43.18
2022-12-06T17:31:19.238Z,43.44
2022-12-06T17:33:23.604Z,43.33
2022-12-06T17:35:27.965Z,43.33
2022-12-06T17:37:32.292Z,42.81
2022-12-06T17:39:36.586Z,42.7
2022-12-06T17:41:41.034Z,42.95
2022-12-06T17:43:45.387Z,42.97
2022-12-06T17:45:50.043Z,42.93
2022-12-06T17:47:54.475Z,42.97
2022-12-06T17:49:59.113Z,42.96
2022-12-06T17:52:03.641Z,42.84
2022-12-06T17:54:11.437Z,42.99
2022-12-06T17:56:15.784Z,42.92
2022-12-06T17:58:20.180Z,42.39
2022-12-06T18:00:24.499Z,42.3
2022-12-06T18:02:29.629Z,42.35
2022-12-06T18:04:34.141Z,42.28
2022-12-06T18:06:38.472Z,41.76
2022-12-06T18:08:42.839Z,42.07
2022-12-06T18:10:47.228Z,42.19
2022-12-06T18:12:51.550Z,42.15
2022-12-06T18:14:55.889Z,42.42
2022-12-06T18:17:00.549Z,42.28
2022-12-06T18:19:10.433Z,42.31
2022-12-06T18:21:14.791Z,42.22
2022-12-06T18:23:19.114Z,42.13
2022-12-06T18:25:23.805Z,42.3
2022-12-06T18:27:28.177Z,42.32
2022-12-06T18:29:32.540Z,42.43
2022-12-06T18:31:37.178Z,42.73
2022-12-06T18:33:41.649Z,42.48
2022-12-06T18:35:46.123Z,42.57
2022-12-06T18:37:50.590Z,42.76
2022-12-06T18:39:55.169Z,42.63
2022-12-06T18:41:59.603Z,42.64
2022-12-06T18:44:03.978Z,42.72
2022-12-06T18:46:08.646Z,42.67
2022-12-06T18:48:13.477Z,42.37
2022-12-06T18:50:17.848Z,42.23
2022-12-06T18:52:22.201Z,42.27
2022-12-06T18:54:26.652Z,41.97
2022-12-06T18:56:31.100Z,37.42
2022-12-06T18:58:35.478Z,35.85
2022-12-06T19:00:39.923Z,35.32
2022-12-06T19:02:44.453Z,34.8
2022-12-06T19:04:48.910Z,34.56
2022-12-06T19:06:53.362Z,34.68
2022-12-06T19:08:57.802Z,34.13
2022-12-06T19:11:02.257Z,33.95
2022-12-06T19:13:08.158Z,34.09
2022-12-06T19:15:12.582Z,33.89
2022-12-06T19:17:16.955Z,33.96
2022-12-06T19:19:21.368Z,33.81
2022-12-06T19:21:25.775Z,33.5
2022-12-06T19:23:30.188Z,33.28
2022-12-06T19:25:34.565Z,33.5
2022-12-06T19:27:38.981Z,33.28
2022-12-06T19:29:43.405Z,33.12
2022-12-06T19:31:47.748Z,32.74
2022-12-06T19:33:52.109Z,33.77
2022-12-06T19:35:56.491Z,33.88
2022-12-06T19:38:00.864Z,33.49
2022-12-06T19:40:05.606Z,33.23
2022-12-06T19:42:09.909Z,33.05
2022-12-06T19:44:14.257Z,32.86
2022-12-06T19:46:18.867Z,32.61
2022-12-06T19:48:23.252Z,31.49
2022-12-06T19:50:27.552Z,31.68
2022-12-06T19:52:33.119Z,32.47
2022-12-06T19:54:37.463Z,32.45
2022-12-06T19:56:41.817Z,32.84
2022-12-06T19:58:46.196Z,32.97
2022-12-06T20:00:50.594Z,34.08
2022-12-06T20:02:55.363Z,34.39
2022-12-06T20:04:59.923Z,34.68
2022-12-06T20:07:04.403Z,35
2022-12-06T20:09:08.822Z,35.31
2022-12-06T20:11:13.212Z,35.42
2022-12-06T20:13:18.038Z,35.32
2022-12-06T20:15:22.498Z,35.59
2022-12-06T20:17:26.984Z,36.04
2022-12-06T20:19:31.341Z,36.23
2022-12-06T20:21:35.690Z,36.12
2022-12-06T20:23:40.069Z,36
2022-12-06T20:25:44.478Z,36.08
2022-12-06T20:27:48.892Z,36.16
2022-12-06T20:29:53.365Z,36.36
2022-12-06T20:31:57.718Z,36.78
2022-12-06T20:34:02.273Z,37.05
2022-12-06T20:36:06.665Z,37.02
2022-12-06T20:38:11.334Z,37.02
2022-12-06T20:40:15.832Z,37.02
2022-12-06T20:42:20.265Z,37.07
2022-12-06T20:44:24.659Z,37.21
2022-12-06T20:46:29.876Z,37.34
2022-12-06T20:48:34.416Z,37.33
2022-12-06T20:50:38.766Z,37.32
2022-12-06T20:52:43.142Z,37.4
2022-12-06T20:54:47.641Z,37.36
2022-12-06T20:56:52.256Z,37.53
2022-12-06T20:58:56.711Z,37.4
2022-12-06T21:01:01.193Z,37.55
2022-12-06T21:03:05.865Z,37.42
2022-12-06T21:05:10.281Z,37.58
2022-12-06T21:07:14.667Z,37.59
2022-12-06T21:09:19.041Z,37.71
2022-12-06T21:11:25.621Z,37.77
2022-12-06T21:13:30.072Z,37.73
2022-12-06T21:15:34.659Z,37.73
2022-12-06T21:17:39.024Z,37.71
2022-12-06T21:19:43.500Z,37.68
2022-12-06T21:21:47.872Z,37.77
2022-12-06T21:23:52.268Z,37.58
2022-12-06T21:25:56.616Z,37.63
2022-12-06T21:28:01.026Z,37.59
2022-12-06T21:30:05.850Z,37.66
2022-12-06T21:32:10.223Z,37.56
2022-12-06T21:34:14.563Z,37.7
2022-12-06T21:36:18.907Z,37.72
2022-12-06T21:38:23.224Z,37.84
2022-12-06T21:40:27.566Z,37.89
2022-12-06T21:42:31.834Z,37.89
2022-12-06T21:44:36.135Z,37.9
2022-12-06T21:46:41.001Z,38.13
2022-12-06T21:48:45.496Z,37.99
2022-12-06T21:50:49.884Z,38.19
2022-12-06T21:52:54.224Z,38.12
2022-12-06T21:54:58.544Z,38.17
2022-12-06T21:57:02.909Z,38.05
2022-12-06T21:59:07.280Z,37.94
2022-12-06T22:01:11.727Z,38.28
2022-12-06T22:03:24.512Z,38.32
2022-12-06T22:05:28.999Z,38.31
2022-12-06T22:07:33.454Z,38.4
2022-12-06T22:09:38.181Z,38.48
2022-12-06T22:11:42.577Z,38.54
2022-12-06T22:13:47.258Z,38.45
2022-12-06T22:15:51.763Z,38.54
2022-12-06T22:17:56.163Z,38.52
2022-12-06T22:20:01.916Z,38.48
2022-12-06T22:22:06.439Z,38.39
2022-12-06T22:24:10.810Z,38.46
2022-12-06T22:26:15.115Z,38.49
2022-12-06T22:28:19.428Z,38.63
2022-12-06T22:30:23.759Z,38.52
2022-12-06T22:32:28.048Z,38.62
2022-12-06T22:34:32.399Z,38.46
2022-12-06T22:36:36.709Z,38.45
2022-12-06T22:38:41.016Z,38.41
2022-12-06T22:40:45.371Z,38.39
2022-12-06T22:42:49.660Z,38.44
2022-12-06T22:44:53.994Z,38.61
2022-12-06T22:46:58.580Z,38.58
2022-12-06T22:49:02.933Z,38.56
2022-12-06T22:51:07.255Z,38.51
2022-12-06T22:53:11.613Z,38.55
2022-12-06T22:55:15.961Z,38.56
2022-12-06T22:57:20.285Z,38.57
2022-12-06T22:59:24.567Z,38.62
2022-12-06T23:01:28.880Z,38.62
2022-12-06T23:03:33.389Z,38.59
2022-12-06T23:05:37.750Z,38.57
2022-12-06T23:07:42.350Z,38.53
2022-12-06T23:09:46.803Z,38.54
2022-12-06T23:11:51.176Z,38.58
2022-12-06T23:13:55.480Z,38.58
2022-12-06T23:16:00.037Z,38.61
2022-12-06T23:18:04.403Z,38.71
2022-12-06T23:20:08.709Z,38.72
2022-12-06T23:22:13.000Z,38.84
2022-12-06T23:24:17.337Z,38.9
2022-12-06T23:26:21.650Z,38.96
2022-12-06T23:28:26.036Z,39.01
2022-12-06T23:30:30.402Z,39.05
2022-12-06T23:32:34.728Z,39.14
2022-12-06T23:34:39.020Z,39.16
2022-12-06T23:36:43.363Z,39.2
2022-12-06T23:38:47.653Z,39.29
2022-12-06T23:40:52.002Z,39.35
2022-12-06T23:42:56.285Z,39.29
2022-12-06T23:45:00.603Z,39.42
2022-12-06T23:47:04.942Z,39.47
2022-12-06T23:49:09.251Z,39.65
2022-12-06T23:51:13.566Z,39.65
2022-12-06T23:53:17.856Z,39.59
2022-12-06T23:55:22.145Z,39.66
2022-12-06T23:57:26.449Z,39.62
2022-12-06T23:59:30.736Z,39.79
